sensor_id;sensor_type;location;lat;lon;timestamp;P1;durP1;ratioP1;P2;durP2;ratioP2
15952;SDS011;8075;47.766;8.846;2023-03-12T00:01:23;11.83;;;10.93;;
15952;SDS011;8075;47.766;8.846;2023-03-12T00:03:51;11.23;;;10.32;;
15952;SDS011;8075;47.766;8.846;2023-03-12T00:06:18;11.07;;;10.17;;
15952;SDS011;8075;47.766;8.846;2023-03-12T00:08:44;11.30;;;10.48;;
15952;SDS011;8075;47.766;8.846;2023-03-12T00:11:14;10.95;;;10.05;;
15952;SDS011;8075;47.766;8.846;2023-03-12T00:13:40;11.10;;;10.30;;
15952;SDS011;8075;47.766;8.846;2023-03-12T00:16:07;10.40;;;9.70;;
15952;SDS011;8075;47.766;8.846;2023-03-12T00:18:34;12.80;;;11.80;;
15952;SDS011;8075;47.766;8.846;2023-03-12T00:21:00;15.65;;;14.25;;
15952;SDS011;8075;47.766;8.846;2023-03-12T00:23:26;14.15;;;12.95;;
15952;SDS011;8075;47.766;8.846;2023-03-12T00:25:52;15.25;;;13.75;;
15952;SDS011;8075;47.766;8.846;2023-03-12T00:28:18;12.65;;;11.55;;
15952;SDS011;8075;47.766;8.846;2023-03-12T00:30:44;12.23;;;11.18;;
15952;SDS011;8075;47.766;8.846;2023-03-12T00:33:10;12.38;;;11.38;;
15952;SDS011;8075;47.766;8.846;2023-03-12T00:35:37;12.32;;;11.25;;
15952;SDS011;8075;47.766;8.846;2023-03-12T00:38:03;12.48;;;11.50;;
15952;SDS011;8075;47.766;8.846;2023-03-12T00:40:29;12.98;;;11.77;;
15952;SDS011;8075;47.766;8.846;2023-03-12T00:42:55;12.48;;;11.38;;
15952;SDS011;8075;47.766;8.846;2023-03-12T00:45:21;11.90;;;11.00;;
15952;SDS011;8075;47.766;8.846;2023-03-12T00:47:47;13.18;;;11.98;;
15952;SDS011;8075;47.766;8.846;2023-03-12T00:50:13;13.20;;;12.00;;
15952;SDS011;8075;47.766;8.846;2023-03-12T00:52:39;12.63;;;11.52;;
15952;SDS011;8075;47.766;8.846;2023-03-12T00:55:05;10.85;;;9.95;;
15952;SDS011;8075;47.766;8.846;2023-03-12T00:57:31;10.47;;;9.60;;
15952;SDS011;8075;47.766;8.846;2023-03-12T00:59:57;9.40;;;8.70;;
15952;SDS011;8075;47.766;8.846;2023-03-12T01:02:23;9.30;;;8.60;;
15952;SDS011;8075;47.766;8.846;2023-03-12T01:04:49;9.05;;;8.35;;
15952;SDS011;8075;47.766;8.846;2023-03-12T01:07:15;9.23;;;8.52;;
15952;SDS011;8075;47.766;8.846;2023-03-12T01:09:41;9.43;;;8.67;;
15952;SDS011;8075;47.766;8.846;2023-03-12T01:12:07;9.32;;;8.55;;
15952;SDS011;8075;47.766;8.846;2023-03-12T01:14:33;8.70;;;8.00;;
15952;SDS011;8075;47.766;8.846;2023-03-12T01:16:59;8.80;;;8.10;;
15952;SDS011;8075;47.766;8.846;2023-03-12T01:19:25;8.80;;;8.10;;
15952;SDS011;8075;47.766;8.846;2023-03-12T01:21:51;9.35;;;8.65;;
15952;SDS011;8075;47.766;8.846;2023-03-12T01:24:17;9.20;;;8.50;;
15952;SDS011;8075;47.766;8.846;2023-03-12T01:26:43;9.32;;;8.63;;
15952;SDS011;8075;47.766;8.846;2023-03-12T01:29:09;9.02;;;8.32;;
15952;SDS011;8075;47.766;8.846;2023-03-12T01:31:35;9.20;;;8.50;;
15952;SDS011;8075;47.766;8.846;2023-03-12T01:34:01;12.55;;;11.65;;
15952;SDS011;8075;47.766;8.846;2023-03-12T01:36:28;15.25;;;14.05;;
15952;SDS011;8075;47.766;8.846;2023-03-12T01:38:55;17.20;;;15.70;;
15952;SDS011;8075;47.766;8.846;2023-03-12T01:41:22;17.08;;;15.68;;
15952;SDS011;8075;47.766;8.846;2023-03-12T01:43:48;17.73;;;16.33;;
15952;SDS011;8075;47.766;8.846;2023-03-12T01:48:45;18.57;;;16.97;;
15952;SDS011;8075;47.766;8.846;2023-03-12T01:51:14;18.55;;;16.95;;
15952;SDS011;8075;47.766;8.846;2023-03-12T01:53:42;19.42;;;17.73;;
15952;SDS011;8075;47.766;8.846;2023-03-12T01:56:09;19.33;;;17.63;;
15952;SDS011;8075;47.766;8.846;2023-03-12T01:58:35;19.00;;;17.33;;
15952;SDS011;8075;47.766;8.846;2023-03-12T02:01:02;20.05;;;18.25;;
15952;SDS011;8075;47.766;8.846;2023-03-12T02:03:28;22.25;;;20.15;;
15952;SDS011;8075;47.766;8.846;2023-03-12T02:05:57;22.77;;;20.57;;
15952;SDS011;8075;47.766;8.846;2023-03-12T02:08:24;21.55;;;19.55;;
15952;SDS011;8075;47.766;8.846;2023-03-12T02:10:51;20.35;;;18.48;;
15952;SDS011;8075;47.766;8.846;2023-03-12T02:13:17;21.05;;;19.10;;
15952;SDS011;8075;47.766;8.846;2023-03-12T02:15:43;20.07;;;18.27;;
15952;SDS011;8075;47.766;8.846;2023-03-12T02:18:10;20.50;;;18.60;;
15952;SDS011;8075;47.766;8.846;2023-03-12T02:23:04;20.37;;;18.57;;
15952;SDS011;8075;47.766;8.846;2023-03-12T02:25:38;19.50;;;17.75;;
15952;SDS011;8075;47.766;8.846;2023-03-12T02:28:06;19.45;;;17.65;;
15952;SDS011;8075;47.766;8.846;2023-03-12T02:30:33;19.35;;;17.65;;
15952;SDS011;8075;47.766;8.846;2023-03-12T02:33:00;17.45;;;15.95;;
15952;SDS011;8075;47.766;8.846;2023-03-12T02:35:26;18.15;;;16.48;;
15952;SDS011;8075;47.766;8.846;2023-03-12T02:37:53;17.20;;;15.70;;
15952;SDS011;8075;47.766;8.846;2023-03-12T02:40:39;16.80;;;15.40;;
15952;SDS011;8075;47.766;8.846;2023-03-12T02:43:08;16.17;;;14.87;;
15952;SDS011;8075;47.766;8.846;2023-03-12T02:45:34;15.40;;;14.10;;
15952;SDS011;8075;47.766;8.846;2023-03-12T02:48:01;16.88;;;15.50;;
15952;SDS011;8075;47.766;8.846;2023-03-12T02:50:28;16.13;;;14.82;;
15952;SDS011;8075;47.766;8.846;2023-03-12T02:52:54;16.05;;;14.75;;
15952;SDS011;8075;47.766;8.846;2023-03-12T02:55:20;16.83;;;15.32;;
15952;SDS011;8075;47.766;8.846;2023-03-12T02:57:46;15.67;;;14.47;;
15952;SDS011;8075;47.766;8.846;2023-03-12T03:00:12;15.68;;;14.30;;
15952;SDS011;8075;47.766;8.846;2023-03-12T03:02:39;16.10;;;14.80;;
15952;SDS011;8075;47.766;8.846;2023-03-12T03:05:05;15.40;;;14.10;;
15952;SDS011;8075;47.766;8.846;2023-03-12T03:07:31;15.75;;;14.45;;
15952;SDS011;8075;47.766;8.846;2023-03-12T03:09:57;16.33;;;14.82;;
15952;SDS011;8075;47.766;8.846;2023-03-12T03:12:28;16.23;;;14.93;;
15952;SDS011;8075;47.766;8.846;2023-03-12T03:14:54;16.90;;;15.43;;
15952;SDS011;8075;47.766;8.846;2023-03-12T03:17:20;17.27;;;15.80;;
15952;SDS011;8075;47.766;8.846;2023-03-12T03:19:48;16.77;;;15.32;;
15952;SDS011;8075;47.766;8.846;2023-03-12T03:22:14;17.02;;;15.55;;
15952;SDS011;8075;47.766;8.846;2023-03-12T03:24:40;16.48;;;14.98;;
15952;SDS011;8075;47.766;8.846;2023-03-12T03:27:06;15.52;;;14.23;;
15952;SDS011;8075;47.766;8.846;2023-03-12T03:29:32;15.03;;;13.83;;
15952;SDS011;8075;47.766;8.846;2023-03-12T03:31:58;14.65;;;13.40;;
15952;SDS011;8075;47.766;8.846;2023-03-12T03:34:24;14.10;;;12.95;;
15952;SDS011;8075;47.766;8.846;2023-03-12T03:36:50;13.75;;;12.65;;
15952;SDS011;8075;47.766;8.846;2023-03-12T03:39:16;13.15;;;12.15;;
15952;SDS011;8075;47.766;8.846;2023-03-12T03:41:42;14.07;;;12.98;;
15952;SDS011;8075;47.766;8.846;2023-03-12T03:44:10;13.00;;;11.95;;
15952;SDS011;8075;47.766;8.846;2023-03-12T03:46:36;13.55;;;12.50;;
15952;SDS011;8075;47.766;8.846;2023-03-12T03:49:02;12.93;;;11.82;;
15952;SDS011;8075;47.766;8.846;2023-03-12T03:51:28;13.60;;;12.50;;
15952;SDS011;8075;47.766;8.846;2023-03-12T03:53:54;13.17;;;12.07;;
15952;SDS011;8075;47.766;8.846;2023-03-12T03:56:21;12.55;;;11.55;;
15952;SDS011;8075;47.766;8.846;2023-03-12T03:58:47;11.93;;;11.02;;
15952;SDS011;8075;47.766;8.846;2023-03-12T04:01:13;11.13;;;10.30;;
15952;SDS011;8075;47.766;8.846;2023-03-12T04:03:39;11.02;;;10.23;;
15952;SDS011;8075;47.766;8.846;2023-03-12T04:06:05;11.40;;;10.40;;
15952;SDS011;8075;47.766;8.846;2023-03-12T04:08:31;11.07;;;10.18;;
15952;SDS011;8075;47.766;8.846;2023-03-12T04:10:59;10.27;;;9.48;;
15952;SDS011;8075;47.766;8.846;2023-03-12T04:13:25;10.13;;;9.33;;
15952;SDS011;8075;47.766;8.846;2023-03-12T04:15:52;10.13;;;9.25;;
15952;SDS011;8075;47.766;8.846;2023-03-12T04:18:18;11.40;;;10.50;;
15952;SDS011;8075;47.766;8.846;2023-03-12T04:20:44;11.27;;;10.45;;
15952;SDS011;8075;47.766;8.846;2023-03-12T04:23:10;11.33;;;10.33;;
15952;SDS011;8075;47.766;8.846;2023-03-12T04:25:37;10.95;;;10.15;;
15952;SDS011;8075;47.766;8.846;2023-03-12T04:28:03;11.00;;;10.10;;
15952;SDS011;8075;47.766;8.846;2023-03-12T04:30:29;11.35;;;10.45;;
15952;SDS011;8075;47.766;8.846;2023-03-12T04:32:55;10.75;;;9.85;;
15952;SDS011;8075;47.766;8.846;2023-03-12T04:35:21;10.32;;;9.32;;
15952;SDS011;8075;47.766;8.846;2023-03-12T04:37:48;10.43;;;9.52;;
15952;SDS011;8075;47.766;8.846;2023-03-12T04:40:15;10.48;;;9.65;;
15952;SDS011;8075;47.766;8.846;2023-03-12T04:42:43;9.63;;;8.82;;
15952;SDS011;8075;47.766;8.846;2023-03-12T04:45:09;9.75;;;8.93;;
15952;SDS011;8075;47.766;8.846;2023-03-12T04:47:35;9.07;;;8.38;;
15952;SDS011;8075;47.766;8.846;2023-03-12T04:50:01;9.10;;;8.40;;
15952;SDS011;8075;47.766;8.846;2023-03-12T04:52:27;9.37;;;8.67;;
15952;SDS011;8075;47.766;8.846;2023-03-12T04:54:53;9.63;;;8.85;;
15952;SDS011;8075;47.766;8.846;2023-03-12T04:57:19;10.18;;;9.27;;
15952;SDS011;8075;47.766;8.846;2023-03-12T04:59:45;9.40;;;8.60;;
15952;SDS011;8075;47.766;8.846;2023-03-12T05:02:11;9.27;;;8.52;;
15952;SDS011;8075;47.766;8.846;2023-03-12T05:04:37;8.40;;;7.80;;
15952;SDS011;8075;47.766;8.846;2023-03-12T05:07:03;8.20;;;7.50;;
15952;SDS011;8075;47.766;8.846;2023-03-12T05:09:29;8.10;;;7.50;;
15952;SDS011;8075;47.766;8.846;2023-03-12T05:11:55;7.75;;;7.15;;
15952;SDS011;8075;47.766;8.846;2023-03-12T05:14:21;8.40;;;7.70;;
15952;SDS011;8075;47.766;8.846;2023-03-12T05:16:47;7.50;;;6.90;;
15952;SDS011;8075;47.766;8.846;2023-03-12T05:19:13;7.50;;;6.90;;
15952;SDS011;8075;47.766;8.846;2023-03-12T05:21:40;7.63;;;7.03;;
15952;SDS011;8075;47.766;8.846;2023-03-12T05:24:07;7.53;;;6.88;;
15952;SDS011;8075;47.766;8.846;2023-03-12T05:26:33;7.78;;;7.18;;
15952;SDS011;8075;47.766;8.846;2023-03-12T05:28:59;7.25;;;6.70;;
15952;SDS011;8075;47.766;8.846;2023-03-12T05:31:26;9.10;;;8.30;;
15952;SDS011;8075;47.766;8.846;2023-03-12T05:33:52;9.43;;;8.73;;
15952;SDS011;8075;47.766;8.846;2023-03-12T05:36:18;10.10;;;9.30;;
15952;SDS011;8075;47.766;8.846;2023-03-12T05:38:44;9.63;;;8.82;;
15952;SDS011;8075;47.766;8.846;2023-03-12T05:41:18;9.48;;;8.70;;
15952;SDS011;8075;47.766;8.846;2023-03-12T05:43:45;10.32;;;9.52;;
15952;SDS011;8075;47.766;8.846;2023-03-12T05:46:10;9.55;;;8.70;;
15952;SDS011;8075;47.766;8.846;2023-03-12T05:48:37;9.63;;;8.93;;
15952;SDS011;8075;47.766;8.846;2023-03-12T05:51:03;10.43;;;9.52;;
15952;SDS011;8075;47.766;8.846;2023-03-12T05:53:29;10.77;;;9.93;;
15952;SDS011;8075;47.766;8.846;2023-03-12T05:56:00;12.75;;;11.65;;
15952;SDS011;8075;47.766;8.846;2023-03-12T05:58:27;12.52;;;11.40;;
15952;SDS011;8075;47.766;8.846;2023-03-12T06:00:53;12.07;;;11.00;;
15952;SDS011;8075;47.766;8.846;2023-03-12T06:03:19;11.57;;;10.68;;
15952;SDS011;8075;47.766;8.846;2023-03-12T06:05:44;12.68;;;11.68;;
15952;SDS011;8075;47.766;8.846;2023-03-12T06:08:12;12.90;;;11.90;;
15952;SDS011;8075;47.766;8.846;2023-03-12T06:10:38;13.15;;;12.05;;
15952;SDS011;8075;47.766;8.846;2023-03-12T06:13:04;13.95;;;12.70;;
15952;SDS011;8075;47.766;8.846;2023-03-12T06:15:30;12.70;;;11.70;;
15952;SDS011;8075;47.766;8.846;2023-03-12T06:17:56;12.60;;;11.60;;
15952;SDS011;8075;47.766;8.846;2023-03-12T06:20:22;12.07;;;11.10;;
15952;SDS011;8075;47.766;8.846;2023-03-12T06:22:48;12.60;;;11.60;;
15952;SDS011;8075;47.766;8.846;2023-03-12T06:25:14;13.35;;;12.05;;
15952;SDS011;8075;47.766;8.846;2023-03-12T06:27:40;12.38;;;11.40;;
15952;SDS011;8075;47.766;8.846;2023-03-12T06:30:06;14.75;;;13.50;;
15952;SDS011;8075;47.766;8.846;2023-03-12T06:32:33;16.35;;;14.77;;
15952;SDS011;8075;47.766;8.846;2023-03-12T06:34:59;17.80;;;16.10;;
15952;SDS011;8075;47.766;8.846;2023-03-12T06:37:25;19.92;;;17.75;;
15952;SDS011;8075;47.766;8.846;2023-03-12T06:39:51;18.95;;;17.15;;
15952;SDS011;8075;47.766;8.846;2023-03-12T06:42:17;17.58;;;15.88;;
15952;SDS011;8075;47.766;8.846;2023-03-12T06:44:44;18.02;;;16.33;;
15952;SDS011;8075;47.766;8.846;2023-03-12T06:47:10;17.48;;;15.88;;
15952;SDS011;8075;47.766;8.846;2023-03-12T06:49:36;16.60;;;15.20;;
15952;SDS011;8075;47.766;8.846;2023-03-12T06:52:03;16.95;;;15.45;;
15952;SDS011;8075;47.766;8.846;2023-03-12T06:54:29;16.25;;;14.75;;
15952;SDS011;8075;47.766;8.846;2023-03-12T06:56:55;15.88;;;14.43;;
15952;SDS011;8075;47.766;8.846;2023-03-12T06:59:23;16.27;;;14.77;;
15952;SDS011;8075;47.766;8.846;2023-03-12T07:01:49;16.83;;;15.33;;
15952;SDS011;8075;47.766;8.846;2023-03-12T07:04:15;16.70;;;15.20;;
15952;SDS011;8075;47.766;8.846;2023-03-12T07:06:41;18.80;;;16.90;;
15952;SDS011;8075;47.766;8.846;2023-03-12T07:09:07;20.58;;;18.38;;
15952;SDS011;8075;47.766;8.846;2023-03-12T07:11:33;22.00;;;19.60;;
15952;SDS011;8075;47.766;8.846;2023-03-12T07:13:59;25.80;;;22.15;;
15952;SDS011;8075;47.766;8.846;2023-03-12T07:16:25;24.90;;;21.92;;
15952;SDS011;8075;47.766;8.846;2023-03-12T07:18:51;28.13;;;22.77;;
15952;SDS011;8075;47.766;8.846;2023-03-12T07:21:17;27.98;;;22.95;;
15952;SDS011;8075;47.766;8.846;2023-03-12T07:23:50;26.73;;;22.27;;
15952;SDS011;8075;47.766;8.846;2023-03-12T07:26:17;26.45;;;22.60;;
15952;SDS011;8075;47.766;8.846;2023-03-12T07:28:43;25.25;;;21.65;;
15952;SDS011;8075;47.766;8.846;2023-03-12T07:31:09;25.98;;;21.50;;
15952;SDS011;8075;47.766;8.846;2023-03-12T07:33:35;29.27;;;23.63;;
15952;SDS011;8075;47.766;8.846;2023-03-12T07:36:01;30.80;;;23.60;;
15952;SDS011;8075;47.766;8.846;2023-03-12T07:38:27;30.23;;;24.00;;
15952;SDS011;8075;47.766;8.846;2023-03-12T07:40:54;29.63;;;24.52;;
15952;SDS011;8075;47.766;8.846;2023-03-12T07:43:20;27.33;;;23.63;;
15952;SDS011;8075;47.766;8.846;2023-03-12T07:45:47;33.25;;;25.98;;
15952;SDS011;8075;47.766;8.846;2023-03-12T07:48:13;32.37;;;25.97;;
15952;SDS011;8075;47.766;8.846;2023-03-12T07:50:40;31.20;;;24.75;;
15952;SDS011;8075;47.766;8.846;2023-03-12T07:53:06;33.00;;;26.30;;
15952;SDS011;8075;47.766;8.846;2023-03-12T07:55:33;31.00;;;25.35;;
15952;SDS011;8075;47.766;8.846;2023-03-12T07:57:59;30.20;;;24.53;;
15952;SDS011;8075;47.766;8.846;2023-03-12T08:00:25;29.63;;;23.63;;
15952;SDS011;8075;47.766;8.846;2023-03-12T08:02:52;27.07;;;23.30;;
15952;SDS011;8075;47.766;8.846;2023-03-12T08:05:18;29.30;;;23.35;;
15952;SDS011;8075;47.766;8.846;2023-03-12T08:07:44;25.95;;;22.55;;
15952;SDS011;8075;47.766;8.846;2023-03-12T08:10:10;26.25;;;22.85;;
15952;SDS011;8075;47.766;8.846;2023-03-12T08:12:36;26.40;;;22.77;;
15952;SDS011;8075;47.766;8.846;2023-03-12T08:15:03;27.25;;;22.45;;
15952;SDS011;8075;47.766;8.846;2023-03-12T08:17:30;26.80;;;22.95;;
15952;SDS011;8075;47.766;8.846;2023-03-12T08:19:56;25.85;;;22.95;;
15952;SDS011;8075;47.766;8.846;2023-03-12T08:22:21;26.50;;;23.35;;
15952;SDS011;8075;47.766;8.846;2023-03-12T08:24:47;24.50;;;21.73;;
15952;SDS011;8075;47.766;8.846;2023-03-12T08:27:13;25.20;;;22.60;;
15952;SDS011;8075;47.766;8.846;2023-03-12T08:29:40;25.48;;;22.77;;
15952;SDS011;8075;47.766;8.846;2023-03-12T08:32:06;26.38;;;23.48;;
15952;SDS011;8075;47.766;8.846;2023-03-12T08:34:34;27.03;;;24.10;;
15952;SDS011;8075;47.766;8.846;2023-03-12T08:37:00;25.90;;;23.15;;
15952;SDS011;8075;47.766;8.846;2023-03-12T08:39:27;24.70;;;22.08;;
15952;SDS011;8075;47.766;8.846;2023-03-12T08:41:53;25.05;;;22.35;;
15952;SDS011;8075;47.766;8.846;2023-03-12T08:44:20;24.67;;;22.00;;
15952;SDS011;8075;47.766;8.846;2023-03-12T08:46:46;24.48;;;21.90;;
15952;SDS011;8075;47.766;8.846;2023-03-12T08:49:12;25.05;;;22.45;;
15952;SDS011;8075;47.766;8.846;2023-03-12T08:51:38;24.57;;;22.07;;
15952;SDS011;8075;47.766;8.846;2023-03-12T08:54:04;24.65;;;22.10;;
15952;SDS011;8075;47.766;8.846;2023-03-12T08:56:30;23.52;;;21.13;;
15952;SDS011;8075;47.766;8.846;2023-03-12T08:58:57;22.52;;;20.23;;
15952;SDS011;8075;47.766;8.846;2023-03-12T09:01:23;23.55;;;21.15;;
15952;SDS011;8075;47.766;8.846;2023-03-12T09:03:49;23.52;;;21.23;;
15952;SDS011;8075;47.766;8.846;2023-03-12T09:06:16;21.75;;;19.60;;
15952;SDS011;8075;47.766;8.846;2023-03-12T09:08:43;21.10;;;19.10;;
15952;SDS011;8075;47.766;8.846;2023-03-12T09:11:10;21.23;;;19.25;;
15952;SDS011;8075;47.766;8.846;2023-03-12T09:13:36;20.00;;;18.10;;
15952;SDS011;8075;47.766;8.846;2023-03-12T09:16:03;20.02;;;18.20;;
15952;SDS011;8075;47.766;8.846;2023-03-12T09:18:29;18.85;;;16.95;;
15952;SDS011;8075;47.766;8.846;2023-03-12T09:20:55;18.08;;;16.40;;
15952;SDS011;8075;47.766;8.846;2023-03-12T09:23:22;17.02;;;15.60;;
15952;SDS011;8075;47.766;8.846;2023-03-12T09:25:48;17.90;;;16.30;;
15952;SDS011;8075;47.766;8.846;2023-03-12T09:28:14;17.35;;;15.82;;
15952;SDS011;8075;47.766;8.846;2023-03-12T09:30:40;16.77;;;15.27;;
15952;SDS011;8075;47.766;8.846;2023-03-12T09:33:06;16.45;;;15.02;;
15952;SDS011;8075;47.766;8.846;2023-03-12T09:35:32;17.10;;;15.60;;
15952;SDS011;8075;47.766;8.846;2023-03-12T09:37:59;17.05;;;15.63;;
15952;SDS011;8075;47.766;8.846;2023-03-12T09:40:26;15.43;;;14.23;;
15952;SDS011;8075;47.766;8.846;2023-03-12T09:42:59;15.35;;;14.15;;
15952;SDS011;8075;47.766;8.846;2023-03-12T09:45:27;15.85;;;14.55;;
15952;SDS011;8075;47.766;8.846;2023-03-12T09:47:55;14.60;;;13.43;;
15952;SDS011;8075;47.766;8.846;2023-03-12T09:50:26;13.50;;;12.48;;
15952;SDS011;8075;47.766;8.846;2023-03-12T09:52:57;14.88;;;13.77;;
15952;SDS011;8075;47.766;8.846;2023-03-12T09:55:24;14.40;;;13.30;;
15952;SDS011;8075;47.766;8.846;2023-03-12T09:57:50;15.05;;;13.82;;
15952;SDS011;8075;47.766;8.846;2023-03-12T10:00:18;14.52;;;13.43;;
15952;SDS011;8075;47.766;8.846;2023-03-12T10:02:58;13.27;;;12.27;;
15952;SDS011;8075;47.766;8.846;2023-03-12T10:05:32;14.48;;;13.38;;
15952;SDS011;8075;47.766;8.846;2023-03-12T10:08:34;15.35;;;14.07;;
15952;SDS011;8075;47.766;8.846;2023-03-12T10:13:24;14.05;;;13.00;;
15952;SDS011;8075;47.766;8.846;2023-03-12T10:16:04;13.45;;;12.45;;
15952;SDS011;8075;47.766;8.846;2023-03-12T10:31:21;12.60;;;11.70;;
15952;SDS011;8075;47.766;8.846;2023-03-12T10:36:16;13.55;;;12.57;;
15952;SDS011;8075;47.766;8.846;2023-03-12T10:38:42;12.98;;;12.05;;
15952;SDS011;8075;47.766;8.846;2023-03-12T10:41:16;13.35;;;12.45;;
15952;SDS011;8075;47.766;8.846;2023-03-12T10:43:42;13.23;;;12.32;;
15952;SDS011;8075;47.766;8.846;2023-03-12T10:48:40;13.23;;;12.23;;
15952;SDS011;8075;47.766;8.846;2023-03-12T10:51:11;13.30;;;12.32;;
15952;SDS011;8075;47.766;8.846;2023-03-12T10:53:37;13.25;;;12.35;;
15952;SDS011;8075;47.766;8.846;2023-03-12T10:56:05;13.20;;;12.30;;
15952;SDS011;8075;47.766;8.846;2023-03-12T10:58:42;12.48;;;11.57;;
15952;SDS011;8075;47.766;8.846;2023-03-12T11:01:19;11.90;;;11.10;;
15952;SDS011;8075;47.766;8.846;2023-03-12T11:03:45;12.30;;;11.40;;
15952;SDS011;8075;47.766;8.846;2023-03-12T11:06:27;11.32;;;10.52;;
15952;SDS011;8075;47.766;8.846;2023-03-12T11:09:01;10.60;;;9.90;;
15952;SDS011;8075;47.766;8.846;2023-03-12T11:11:32;10.27;;;9.52;;
15952;SDS011;8075;47.766;8.846;2023-03-12T11:14:06;10.20;;;9.50;;
15952;SDS011;8075;47.766;8.846;2023-03-12T11:16:32;10.85;;;10.15;;
15952;SDS011;8075;47.766;8.846;2023-03-12T11:18:59;12.18;;;11.32;;
15952;SDS011;8075;47.766;8.846;2023-03-12T11:21:26;13.10;;;12.20;;
15952;SDS011;8075;47.766;8.846;2023-03-12T11:26:22;12.80;;;11.90;;
15952;SDS011;8075;47.766;8.846;2023-03-12T11:28:55;13.38;;;12.40;;
15952;SDS011;8075;47.766;8.846;2023-03-12T11:31:26;13.90;;;12.80;;
15952;SDS011;8075;47.766;8.846;2023-03-12T11:33:56;14.23;;;13.18;;
15952;SDS011;8075;47.766;8.846;2023-03-12T11:41:46;14.10;;;13.00;;
15952;SDS011;8075;47.766;8.846;2023-03-12T11:44:23;12.93;;;12.00;;
15952;SDS011;8075;47.766;8.846;2023-03-12T11:49:38;13.88;;;12.80;;
15952;SDS011;8075;47.766;8.846;2023-03-12T12:07:38;10.43;;;9.63;;
15952;SDS011;8075;47.766;8.846;2023-03-12T12:13:14;9.15;;;8.40;;
15952;SDS011;8075;47.766;8.846;2023-03-12T12:15:44;8.50;;;7.90;;
15952;SDS011;8075;47.766;8.846;2023-03-12T12:23:57;7.45;;;6.95;;
15952;SDS011;8075;47.766;8.846;2023-03-12T12:26:34;4.30;;;4.00;;
15952;SDS011;8075;47.766;8.846;2023-03-12T12:31:49;5.47;;;5.07;;
15952;SDS011;8075;47.766;8.846;2023-03-12T12:37:07;3.35;;;3.13;;
15952;SDS011;8075;47.766;8.846;2023-03-12T12:39:39;3.00;;;2.80;;
15952;SDS011;8075;47.766;8.846;2023-03-12T12:42:07;2.58;;;2.38;;
15952;SDS011;8075;47.766;8.846;2023-03-12T12:44:36;1.65;;;1.52;;
15952;SDS011;8075;47.766;8.846;2023-03-12T12:47:04;1.70;;;1.40;;
15952;SDS011;8075;47.766;8.846;2023-03-12T12:49:35;2.38;;;1.20;;
15952;SDS011;8075;47.766;8.846;2023-03-12T12:52:06;2.43;;;1.33;;
15952;SDS011;8075;47.766;8.846;2023-03-12T12:57:13;3.67;;;1.60;;
15952;SDS011;8075;47.766;8.846;2023-03-12T13:02:16;3.88;;;1.60;;
15952;SDS011;8075;47.766;8.846;2023-03-12T13:04:44;4.55;;;1.30;;
15952;SDS011;8075;47.766;8.846;2023-03-12T13:09:40;3.65;;;1.52;;
15952;SDS011;8075;47.766;8.846;2023-03-12T13:15:00;5.20;;;1.80;;
15952;SDS011;8075;47.766;8.846;2023-03-12T13:19:59;3.67;;;1.50;;
15952;SDS011;8075;47.766;8.846;2023-03-12T13:27:55;2.90;;;1.30;;
15952;SDS011;8075;47.766;8.846;2023-03-12T13:40:36;5.70;;;1.87;;
15952;SDS011;8075;47.766;8.846;2023-03-12T13:45:32;5.60;;;1.80;;
15952;SDS011;8075;47.766;8.846;2023-03-12T13:48:00;5.80;;;2.15;;
15952;SDS011;8075;47.766;8.846;2023-03-12T13:50:27;6.53;;;1.93;;
15952;SDS011;8075;47.766;8.846;2023-03-12T13:52:59;4.70;;;1.60;;
15952;SDS011;8075;47.766;8.846;2023-03-12T13:55:27;4.88;;;1.63;;
15952;SDS011;8075;47.766;8.846;2023-03-12T13:57:54;4.27;;;1.30;;
15952;SDS011;8075;47.766;8.846;2023-03-12T14:00:29;5.35;;;1.65;;
15952;SDS011;8075;47.766;8.846;2023-03-12T14:03:01;4.15;;;1.63;;
15952;SDS011;8075;47.766;8.846;2023-03-12T14:05:28;4.72;;;1.38;;
15952;SDS011;8075;47.766;8.846;2023-03-12T14:08:10;4.18;;;1.55;;
15952;SDS011;8075;47.766;8.846;2023-03-12T14:10:46;3.40;;;1.33;;
15952;SDS011;8075;47.766;8.846;2023-03-12T14:15:48;3.58;;;1.67;;
15952;SDS011;8075;47.766;8.846;2023-03-12T14:18:19;4.30;;;1.70;;
15952;SDS011;8075;47.766;8.846;2023-03-12T14:20:49;5.43;;;1.40;;
15952;SDS011;8075;47.766;8.846;2023-03-12T14:23:17;3.97;;;1.50;;
15952;SDS011;8075;47.766;8.846;2023-03-12T14:25:44;4.67;;;1.50;;
15952;SDS011;8075;47.766;8.846;2023-03-12T14:28:21;4.80;;;2.05;;
15952;SDS011;8075;47.766;8.846;2023-03-12T14:30:57;4.22;;;1.90;;
15952;SDS011;8075;47.766;8.846;2023-03-12T14:33:25;4.30;;;1.67;;
15952;SDS011;8075;47.766;8.846;2023-03-12T14:35:53;5.10;;;2.30;;
15952;SDS011;8075;47.766;8.846;2023-03-12T14:38:24;3.92;;;1.65;;
15952;SDS011;8075;47.766;8.846;2023-03-12T14:43:28;4.03;;;1.40;;
15952;SDS011;8075;47.766;8.846;2023-03-12T14:45:55;4.05;;;1.48;;
15952;SDS011;8075;47.766;8.846;2023-03-12T14:48:31;4.25;;;1.45;;
15952;SDS011;8075;47.766;8.846;2023-03-12T14:50:58;4.05;;;1.60;;
15952;SDS011;8075;47.766;8.846;2023-03-12T14:56:04;5.30;;;2.05;;
15952;SDS011;8075;47.766;8.846;2023-03-12T14:58:31;6.68;;;2.00;;
15952;SDS011;8075;47.766;8.846;2023-03-12T15:01:02;3.13;;;1.70;;
15952;SDS011;8075;47.766;8.846;2023-03-12T15:03:29;3.92;;;1.48;;
15952;SDS011;8075;47.766;8.846;2023-03-12T15:05:57;3.75;;;1.75;;
15952;SDS011;8075;47.766;8.846;2023-03-12T15:08:24;5.22;;;1.77;;
15952;SDS011;8075;47.766;8.846;2023-03-12T15:10:54;5.18;;;1.63;;
15952;SDS011;8075;47.766;8.846;2023-03-12T15:13:21;4.53;;;1.48;;
15952;SDS011;8075;47.766;8.846;2023-03-12T15:15:50;4.40;;;1.50;;
15952;SDS011;8075;47.766;8.846;2023-03-12T15:18:17;3.40;;;1.40;;
15952;SDS011;8075;47.766;8.846;2023-03-12T15:20:44;3.77;;;1.47;;
15952;SDS011;8075;47.766;8.846;2023-03-12T15:23:11;5.22;;;1.60;;
15952;SDS011;8075;47.766;8.846;2023-03-12T15:25:38;4.30;;;1.77;;
15952;SDS011;8075;47.766;8.846;2023-03-12T15:28:06;5.78;;;1.80;;
15952;SDS011;8075;47.766;8.846;2023-03-12T15:30:33;4.13;;;1.40;;
15952;SDS011;8075;47.766;8.846;2023-03-12T15:33:03;5.35;;;1.48;;
15952;SDS011;8075;47.766;8.846;2023-03-12T15:35:30;5.05;;;1.60;;
15952;SDS011;8075;47.766;8.846;2023-03-12T15:37:56;4.65;;;1.92;;
15952;SDS011;8075;47.766;8.846;2023-03-12T15:40:23;7.05;;;1.85;;
15952;SDS011;8075;47.766;8.846;2023-03-12T15:42:49;4.60;;;1.50;;
15952;SDS011;8075;47.766;8.846;2023-03-12T15:45:19;4.55;;;1.40;;
15952;SDS011;8075;47.766;8.846;2023-03-12T15:47:46;5.10;;;1.80;;
15952;SDS011;8075;47.766;8.846;2023-03-12T15:50:17;6.75;;;1.70;;
15952;SDS011;8075;47.766;8.846;2023-03-12T15:55:53;4.53;;;1.80;;
15952;SDS011;8075;47.766;8.846;2023-03-12T15:58:26;4.95;;;1.55;;
15952;SDS011;8075;47.766;8.846;2023-03-12T16:00:54;5.55;;;1.50;;
15952;SDS011;8075;47.766;8.846;2023-03-12T16:03:30;5.60;;;1.58;;
15952;SDS011;8075;47.766;8.846;2023-03-12T16:05:56;4.47;;;1.58;;
15952;SDS011;8075;47.766;8.846;2023-03-12T16:08:26;5.40;;;1.77;;
15952;SDS011;8075;47.766;8.846;2023-03-12T16:10:54;5.47;;;1.90;;
15952;SDS011;8075;47.766;8.846;2023-03-12T16:13:27;6.85;;;1.85;;
15952;SDS011;8075;47.766;8.846;2023-03-12T16:15:55;6.03;;;1.80;;
15952;SDS011;8075;47.766;8.846;2023-03-12T16:18:21;4.43;;;2.00;;
15952;SDS011;8075;47.766;8.846;2023-03-12T16:20:48;5.18;;;2.00;;
15952;SDS011;8075;47.766;8.846;2023-03-12T16:23:15;7.77;;;2.10;;
15952;SDS011;8075;47.766;8.846;2023-03-12T16:25:42;5.63;;;2.10;;
15952;SDS011;8075;47.766;8.846;2023-03-12T16:28:09;5.35;;;1.98;;
15952;SDS011;8075;47.766;8.846;2023-03-12T16:30:36;5.45;;;1.90;;
15952;SDS011;8075;47.766;8.846;2023-03-12T16:33:03;6.70;;;1.93;;